sensor_id;sensor_type;location;lat;lon;timestamp;temperature;humidity
20714;DHT22;10518;50.742;4.226;2023-02-01T00:01:33;8.60;99.90
20714;DHT22;10518;50.742;4.226;2023-02-01T00:03:59;8.50;99.90
20714;DHT22;10518;50.742;4.226;2023-02-01T00:06:24;8.60;99.90
20714;DHT22;10518;50.742;4.226;2023-02-01T00:08:53;8.80;99.90
20714;DHT22;10518;50.742;4.226;2023-02-01T00:11:19;8.70;99.90
20714;DHT22;10518;50.742;4.226;2023-02-01T00:13:45;8.60;99.90
20714;DHT22;10518;50.742;4.226;2023-02-01T00:16:17;8.60;99.90
20714;DHT22;10518;50.742;4.226;2023-02-01T00:18:46;8.90;99.90
20714;DHT22;10518;50.742;4.226;2023-02-01T00:21:13;8.80;99.90
20714;DHT22;10518;50.742;4.226;2023-02-01T00:23:39;8.90;99.90
20714;DHT22;10518;50.742;4.226;2023-02-01T00:26:07;8.80;99.90
20714;DHT22;10518;50.742;4.226;2023-02-01T00:28:36;8.70;99.90
20714;DHT22;10518;50.742;4.226;2023-02-01T00:31:03;8.50;99.90
20714;DHT22;10518;50.742;4.226;2023-02-01T00:33:30;8.50;99.90
20714;DHT22;10518;50.742;4.226;2023-02-01T00:35:57;8.60;99.90
20714;DHT22;10518;50.742;4.226;2023-02-01T00:38:24;8.80;99.90
20714;DHT22;10518;50.742;4.226;2023-02-01T00:40:49;8.70;99.90
20714;DHT22;10518;50.742;4.226;2023-02-01T00:43:15;8.70;99.90
20714;DHT22;10518;50.742;4.226;2023-02-01T00:45:40;8.50;99.90
20714;DHT22;10518;50.742;4.226;2023-02-01T00:48:06;8.50;99.90
20714;DHT22;10518;50.742;4.226;2023-02-01T00:50:32;8.60;99.90
20714;DHT22;10518;50.742;4.226;2023-02-01T00:52:57;8.60;99.90
20714;DHT22;10518;50.742;4.226;2023-02-01T00:55:23;8.50;99.90
20714;DHT22;10518;50.742;4.226;2023-02-01T00:57:48;8.40;99.90
20714;DHT22;10518;50.742;4.226;2023-02-01T01:00:15;8.40;99.90
20714;DHT22;10518;50.742;4.226;2023-02-01T01:02:41;8.40;99.90
20714;DHT22;10518;50.742;4.226;2023-02-01T01:05:07;8.40;99.90
20714;DHT22;10518;50.742;4.226;2023-02-01T01:07:32;8.50;99.90
20714;DHT22;10518;50.742;4.226;2023-02-01T01:09:58;8.50;99.90
20714;DHT22;10518;50.742;4.226;2023-02-01T01:12:24;8.60;99.90
20714;DHT22;10518;50.742;4.226;2023-02-01T01:14:49;8.50;99.90
20714;DHT22;10518;50.742;4.226;2023-02-01T01:17:15;8.50;99.90
20714;DHT22;10518;50.742;4.226;2023-02-01T01:19:40;8.60;99.90
20714;DHT22;10518;50.742;4.226;2023-02-01T01:22:06;8.30;99.90
20714;DHT22;10518;50.742;4.226;2023-02-01T01:24:31;8.20;99.90
20714;DHT22;10518;50.742;4.226;2023-02-01T01:26:57;8.20;99.90
20714;DHT22;10518;50.742;4.226;2023-02-01T01:29:22;8.00;99.90
20714;DHT22;10518;50.742;4.226;2023-02-01T01:31:48;8.10;99.90
20714;DHT22;10518;50.742;4.226;2023-02-01T01:34:13;8.00;99.90
20714;DHT22;10518;50.742;4.226;2023-02-01T01:36:39;8.00;99.90
20714;DHT22;10518;50.742;4.226;2023-02-01T01:39:05;8.00;99.90
20714;DHT22;10518;50.742;4.226;2023-02-01T01:41:31;8.10;99.90
20714;DHT22;10518;50.742;4.226;2023-02-01T01:44:00;8.00;99.90
20714;DHT22;10518;50.742;4.226;2023-02-01T01:46:27;8.00;99.90
20714;DHT22;10518;50.742;4.226;2023-02-01T01:48:58;8.10;99.90
20714;DHT22;10518;50.742;4.226;2023-02-01T01:51:25;8.00;99.90
20714;DHT22;10518;50.742;4.226;2023-02-01T01:54:18;8.20;99.90
20714;DHT22;10518;50.742;4.226;2023-02-01T01:56:44;8.20;99.90
20714;DHT22;10518;50.742;4.226;2023-02-01T01:59:12;8.20;99.90
20714;DHT22;10518;50.742;4.226;2023-02-01T02:01:38;8.30;99.90
20714;DHT22;10518;50.742;4.226;2023-02-01T02:04:04;8.30;99.90
20714;DHT22;10518;50.742;4.226;2023-02-01T02:07:04;8.30;99.90
20714;DHT22;10518;50.742;4.226;2023-02-01T02:09:22;8.50;99.90
20714;DHT22;10518;50.742;4.226;2023-02-01T02:11:48;8.50;99.90
20714;DHT22;10518;50.742;4.226;2023-02-01T02:14:15;8.60;99.90
20714;DHT22;10518;50.742;4.226;2023-02-01T02:31:08;8.40;99.90
20714;DHT22;10518;50.742;4.226;2023-02-01T02:33:51;8.40;99.90
20714;DHT22;10518;50.742;4.226;2023-02-01T02:36:24;8.40;99.90
20714;DHT22;10518;50.742;4.226;2023-02-01T02:53:32;8.40;99.90
20714;DHT22;10518;50.742;4.226;2023-02-01T02:56:20;8.50;99.90
20714;DHT22;10518;50.742;4.226;2023-02-01T02:59:07;8.40;99.90
20714;DHT22;10518;50.742;4.226;2023-02-01T03:01:53;8.30;99.90
20714;DHT22;10518;50.742;4.226;2023-02-01T03:04:37;8.20;99.90
20714;DHT22;10518;50.742;4.226;2023-02-01T03:08:02;8.20;99.90
20714;DHT22;10518;50.742;4.226;2023-02-01T03:10:05;8.20;99.90
20714;DHT22;10518;50.742;4.226;2023-02-01T03:12:37;8.10;99.90
20714;DHT22;10518;50.742;4.226;2023-02-01T03:15:38;8.10;99.90
20714;DHT22;10518;50.742;4.226;2023-02-01T03:18:10;8.00;99.90
20714;DHT22;10518;50.742;4.226;2023-02-01T03:20:40;8.00;99.90
20714;DHT22;10518;50.742;4.226;2023-02-01T03:23:08;8.00;99.90
20714;DHT22;10518;50.742;4.226;2023-02-01T03:25:34;7.90;99.90
20714;DHT22;10518;50.742;4.226;2023-02-01T03:28:06;7.90;99.90
20714;DHT22;10518;50.742;4.226;2023-02-01T03:30:40;7.80;99.90
20714;DHT22;10518;50.742;4.226;2023-02-01T03:33:11;7.70;99.90
20714;DHT22;10518;50.742;4.226;2023-02-01T03:36:27;7.60;99.90
20714;DHT22;10518;50.742;4.226;2023-02-01T03:41:46;7.40;99.90
20714;DHT22;10518;50.742;4.226;2023-02-01T03:44:20;7.30;99.90
20714;DHT22;10518;50.742;4.226;2023-02-01T03:46:55;7.20;99.90
20714;DHT22;10518;50.742;4.226;2023-02-01T03:49:34;7.20;99.90
20714;DHT22;10518;50.742;4.226;2023-02-01T03:52:02;7.40;99.90
20714;DHT22;10518;50.742;4.226;2023-02-01T03:54:29;7.50;99.90
20714;DHT22;10518;50.742;4.226;2023-02-01T03:56:57;7.40;99.90
20714;DHT22;10518;50.742;4.226;2023-02-01T03:59:25;7.40;99.90
20714;DHT22;10518;50.742;4.226;2023-02-01T04:01:50;7.30;99.90
20714;DHT22;10518;50.742;4.226;2023-02-01T04:04:16;7.20;99.90
20714;DHT22;10518;50.742;4.226;2023-02-01T04:06:51;7.40;99.90
20714;DHT22;10518;50.742;4.226;2023-02-01T04:09:17;7.10;99.90
20714;DHT22;10518;50.742;4.226;2023-02-01T04:11:43;7.20;99.90
20714;DHT22;10518;50.742;4.226;2023-02-01T04:14:09;7.10;99.90
20714;DHT22;10518;50.742;4.226;2023-02-01T04:16:35;7.00;99.90
20714;DHT22;10518;50.742;4.226;2023-02-01T04:19:00;7.10;99.90
20714;DHT22;10518;50.742;4.226;2023-02-01T04:21:26;7.10;99.90
20714;DHT22;10518;50.742;4.226;2023-02-01T04:23:52;7.10;99.90
20714;DHT22;10518;50.742;4.226;2023-02-01T04:26:18;7.00;99.90
20714;DHT22;10518;50.742;4.226;2023-02-01T04:28:45;6.80;99.90
20714;DHT22;10518;50.742;4.226;2023-02-01T04:31:13;6.80;99.90
20714;DHT22;10518;50.742;4.226;2023-02-01T04:33:39;6.80;99.90
20714;DHT22;10518;50.742;4.226;2023-02-01T04:36:04;6.80;99.90
20714;DHT22;10518;50.742;4.226;2023-02-01T04:38:30;6.90;99.90
20714;DHT22;10518;50.742;4.226;2023-02-01T04:40:57;7.00;99.90
20714;DHT22;10518;50.742;4.226;2023-02-01T04:43:23;6.90;99.90
20714;DHT22;10518;50.742;4.226;2023-02-01T04:45:49;6.90;99.90
20714;DHT22;10518;50.742;4.226;2023-02-01T04:48:16;6.80;99.90
20714;DHT22;10518;50.742;4.226;2023-02-01T04:50:43;6.60;99.90
20714;DHT22;10518;50.742;4.226;2023-02-01T04:53:11;6.60;99.90
20714;DHT22;10518;50.742;4.226;2023-02-01T04:55:36;6.40;99.90
20714;DHT22;10518;50.742;4.226;2023-02-01T04:58:02;6.50;99.90
20714;DHT22;10518;50.742;4.226;2023-02-01T05:00:27;6.40;99.90
20714;DHT22;10518;50.742;4.226;2023-02-01T05:02:53;6.60;99.90
20714;DHT22;10518;50.742;4.226;2023-02-01T05:05:18;6.30;99.90
20714;DHT22;10518;50.742;4.226;2023-02-01T05:07:45;6.40;99.90
20714;DHT22;10518;50.742;4.226;2023-02-01T05:10:11;6.30;99.90
20714;DHT22;10518;50.742;4.226;2023-02-01T05:12:36;6.40;99.90
20714;DHT22;10518;50.742;4.226;2023-02-01T05:15:21;6.30;99.90
20714;DHT22;10518;50.742;4.226;2023-02-01T05:17:46;6.20;99.90
20714;DHT22;10518;50.742;4.226;2023-02-01T05:20:12;6.30;99.90
20714;DHT22;10518;50.742;4.226;2023-02-01T05:22:38;6.10;99.90
20714;DHT22;10518;50.742;4.226;2023-02-01T05:25:03;6.00;99.90
20714;DHT22;10518;50.742;4.226;2023-02-01T05:27:30;5.90;99.90
20714;DHT22;10518;50.742;4.226;2023-02-01T05:29:56;6.00;99.90
20714;DHT22;10518;50.742;4.226;2023-02-01T05:32:22;5.90;99.90
20714;DHT22;10518;50.742;4.226;2023-02-01T05:34:47;5.80;99.90
20714;DHT22;10518;50.742;4.226;2023-02-01T05:37:13;5.60;99.90
20714;DHT22;10518;50.742;4.226;2023-02-01T05:39:38;5.60;99.90
20714;DHT22;10518;50.742;4.226;2023-02-01T05:42:04;5.50;99.90
20714;DHT22;10518;50.742;4.226;2023-02-01T05:44:29;5.50;99.90
20714;DHT22;10518;50.742;4.226;2023-02-01T05:46:55;5.70;99.90
20714;DHT22;10518;50.742;4.226;2023-02-01T05:49:20;5.70;99.90
20714;DHT22;10518;50.742;4.226;2023-02-01T05:51:46;5.80;99.90
20714;DHT22;10518;50.742;4.226;2023-02-01T05:54:12;5.70;99.90
20714;DHT22;10518;50.742;4.226;2023-02-01T05:56:37;5.50;99.90
20714;DHT22;10518;50.742;4.226;2023-02-01T05:59:03;5.50;99.90
20714;DHT22;10518;50.742;4.226;2023-02-01T06:01:28;5.50;99.90
20714;DHT22;10518;50.742;4.226;2023-02-01T06:03:54;5.50;99.90
20714;DHT22;10518;50.742;4.226;2023-02-01T06:06:20;5.60;99.90
20714;DHT22;10518;50.742;4.226;2023-02-01T06:08:45;5.50;99.90
20714;DHT22;10518;50.742;4.226;2023-02-01T06:11:11;5.50;99.90
20714;DHT22;10518;50.742;4.226;2023-02-01T06:13:38;5.60;99.90
20714;DHT22;10518;50.742;4.226;2023-02-01T06:16:04;5.60;99.90
20714;DHT22;10518;50.742;4.226;2023-02-01T06:18:33;5.60;99.90
20714;DHT22;10518;50.742;4.226;2023-02-01T06:20:59;5.60;99.90
20714;DHT22;10518;50.742;4.226;2023-02-01T06:23:28;5.60;99.90
20714;DHT22;10518;50.742;4.226;2023-02-01T06:26:03;5.40;99.90
20714;DHT22;10518;50.742;4.226;2023-02-01T06:28:29;5.50;99.90
20714;DHT22;10518;50.742;4.226;2023-02-01T06:30:56;5.60;99.90
20714;DHT22;10518;50.742;4.226;2023-02-01T06:33:26;5.60;99.90
20714;DHT22;10518;50.742;4.226;2023-02-01T06:35:58;5.40;99.90
20714;DHT22;10518;50.742;4.226;2023-02-01T06:38:25;5.50;99.90
20714;DHT22;10518;50.742;4.226;2023-02-01T06:40:55;5.50;99.90
20714;DHT22;10518;50.742;4.226;2023-02-01T06:43:22;5.60;99.90
20714;DHT22;10518;50.742;4.226;2023-02-01T06:45:49;5.40;99.90
20714;DHT22;10518;50.742;4.226;2023-02-01T06:48:14;5.40;99.90
20714;DHT22;10518;50.742;4.226;2023-02-01T06:50:40;5.60;99.90
20714;DHT22;10518;50.742;4.226;2023-02-01T06:53:05;5.60;99.90
20714;DHT22;10518;50.742;4.226;2023-02-01T06:55:31;5.70;99.90
20714;DHT22;10518;50.742;4.226;2023-02-01T06:57:56;5.70;99.90
20714;DHT22;10518;50.742;4.226;2023-02-01T07:00:22;5.60;99.90
20714;DHT22;10518;50.742;4.226;2023-02-01T07:02:48;5.50;99.90
20714;DHT22;10518;50.742;4.226;2023-02-01T07:05:14;5.40;99.90
20714;DHT22;10518;50.742;4.226;2023-02-01T07:07:40;5.50;99.90
20714;DHT22;10518;50.742;4.226;2023-02-01T07:10:05;5.40;99.90
20714;DHT22;10518;50.742;4.226;2023-02-01T07:12:31;5.30;99.90
20714;DHT22;10518;50.742;4.226;2023-02-01T07:14:57;5.30;99.90
20714;DHT22;10518;50.742;4.226;2023-02-01T07:17:23;5.30;99.90
20714;DHT22;10518;50.742;4.226;2023-02-01T07:19:48;5.40;99.90
20714;DHT22;10518;50.742;4.226;2023-02-01T07:22:17;5.30;99.90
20714;DHT22;10518;50.742;4.226;2023-02-01T07:24:43;5.20;99.90
20714;DHT22;10518;50.742;4.226;2023-02-01T07:27:08;5.10;99.90
20714;DHT22;10518;50.742;4.226;2023-02-01T07:29:34;5.10;99.90
20714;DHT22;10518;50.742;4.226;2023-02-01T07:31:59;5.10;99.90
20714;DHT22;10518;50.742;4.226;2023-02-01T07:34:26;5.20;99.90
20714;DHT22;10518;50.742;4.226;2023-02-01T07:36:52;5.20;99.90
20714;DHT22;10518;50.742;4.226;2023-02-01T07:39:17;5.30;99.90
20714;DHT22;10518;50.742;4.226;2023-02-01T07:41:43;5.20;99.90
20714;DHT22;10518;50.742;4.226;2023-02-01T07:44:09;5.00;99.90
20714;DHT22;10518;50.742;4.226;2023-02-01T07:46:35;5.10;99.90
20714;DHT22;10518;50.742;4.226;2023-02-01T07:49:01;5.00;99.90
20714;DHT22;10518;50.742;4.226;2023-02-01T07:51:27;5.10;99.90
20714;DHT22;10518;50.742;4.226;2023-02-01T07:53:52;5.10;99.90
20714;DHT22;10518;50.742;4.226;2023-02-01T07:56:19;5.10;99.90
20714;DHT22;10518;50.742;4.226;2023-02-01T07:58:48;5.30;99.90
20714;DHT22;10518;50.742;4.226;2023-02-01T08:01:24;5.40;99.90
20714;DHT22;10518;50.742;4.226;2023-02-01T08:06:18;5.60;99.90
20714;DHT22;10518;50.742;4.226;2023-02-01T08:08:45;5.50;99.90
20714;DHT22;10518;50.742;4.226;2023-02-01T08:11:13;5.80;99.90
20714;DHT22;10518;50.742;4.226;2023-02-01T08:13:39;6.10;99.90
20714;DHT22;10518;50.742;4.226;2023-02-01T08:16:07;6.20;99.90
20714;DHT22;10518;50.742;4.226;2023-02-01T08:18:34;6.30;99.90
20714;DHT22;10518;50.742;4.226;2023-02-01T08:21:20;6.60;99.90
20714;DHT22;10518;50.742;4.226;2023-02-01T08:23:47;6.70;99.90
20714;DHT22;10518;50.742;4.226;2023-02-01T08:26:16;6.70;99.90
20714;DHT22;10518;50.742;4.226;2023-02-01T08:28:44;6.60;99.90
20714;DHT22;10518;50.742;4.226;2023-02-01T08:31:13;6.80;99.90
20714;DHT22;10518;50.742;4.226;2023-02-01T08:33:40;6.80;99.90
20714;DHT22;10518;50.742;4.226;2023-02-01T08:36:07;6.90;99.90
20714;DHT22;10518;50.742;4.226;2023-02-01T08:38:35;6.90;99.90
20714;DHT22;10518;50.742;4.226;2023-02-01T08:41:10;6.80;99.90
20714;DHT22;10518;50.742;4.226;2023-02-01T08:43:36;6.90;99.90
20714;DHT22;10518;50.742;4.226;2023-02-01T08:46:03;7.10;99.90
20714;DHT22;10518;50.742;4.226;2023-02-01T08:48:29;7.20;99.90
20714;DHT22;10518;50.742;4.226;2023-02-01T08:50:55;7.30;99.90
20714;DHT22;10518;50.742;4.226;2023-02-01T08:53:20;7.40;99.90
20714;DHT22;10518;50.742;4.226;2023-02-01T08:55:46;7.40;99.90
20714;DHT22;10518;50.742;4.226;2023-02-01T08:58:12;7.30;99.90
20714;DHT22;10518;50.742;4.226;2023-02-01T09:00:40;7.30;99.90
20714;DHT22;10518;50.742;4.226;2023-02-01T09:03:08;7.40;99.90
20714;DHT22;10518;50.742;4.226;2023-02-01T09:05:34;7.50;99.90
20714;DHT22;10518;50.742;4.226;2023-02-01T09:08:00;7.60;99.90
20714;DHT22;10518;50.742;4.226;2023-02-01T09:10:26;7.60;99.90
20714;DHT22;10518;50.742;4.226;2023-02-01T09:12:51;7.60;99.90
20714;DHT22;10518;50.742;4.226;2023-02-01T09:15:17;7.70;99.90
20714;DHT22;10518;50.742;4.226;2023-02-01T09:17:43;7.60;99.90
20714;DHT22;10518;50.742;4.226;2023-02-01T09:20:09;7.70;99.90
20714;DHT22;10518;50.742;4.226;2023-02-01T09:22:35;7.60;99.90
20714;DHT22;10518;50.742;4.226;2023-02-01T09:25:00;7.70;99.90
20714;DHT22;10518;50.742;4.226;2023-02-01T09:27:29;7.70;99.90
20714;DHT22;10518;50.742;4.226;2023-02-01T09:29:55;7.60;99.90
20714;DHT22;10518;50.742;4.226;2023-02-01T09:32:21;7.40;99.90
20714;DHT22;10518;50.742;4.226;2023-02-01T09:34:47;7.50;99.90
20714;DHT22;10518;50.742;4.226;2023-02-01T09:37:13;7.40;99.90
20714;DHT22;10518;50.742;4.226;2023-02-01T09:39:39;7.60;99.90
20714;DHT22;10518;50.742;4.226;2023-02-01T09:47:20;7.80;99.90
20714;DHT22;10518;50.742;4.226;2023-02-01T09:49:57;7.80;99.90
20714;DHT22;10518;50.742;4.226;2023-02-01T09:52:42;7.80;99.90
20714;DHT22;10518;50.742;4.226;2023-02-01T09:55:25;7.80;99.90
20714;DHT22;10518;50.742;4.226;2023-02-01T10:00:36;8.00;99.90
20714;DHT22;10518;50.742;4.226;2023-02-01T10:03:03;8.20;99.90
20714;DHT22;10518;50.742;4.226;2023-02-01T10:09:02;8.20;99.90
20714;DHT22;10518;50.742;4.226;2023-02-01T10:14:16;8.30;99.90
20714;DHT22;10518;50.742;4.226;2023-02-01T10:19:53;8.40;99.90
20714;DHT22;10518;50.742;4.226;2023-02-01T10:27:50;8.60;99.90
20714;DHT22;10518;50.742;4.226;2023-02-01T10:30:24;8.70;99.90
20714;DHT22;10518;50.742;4.226;2023-02-01T10:32:56;8.70;99.90
20714;DHT22;10518;50.742;4.226;2023-02-01T10:35:28;8.80;99.90
20714;DHT22;10518;50.742;4.226;2023-02-01T10:37:58;8.90;99.90
20714;DHT22;10518;50.742;4.226;2023-02-01T10:40:26;8.90;99.90
20714;DHT22;10518;50.742;4.226;2023-02-01T10:43:00;9.00;99.90
20714;DHT22;10518;50.742;4.226;2023-02-01T10:45:32;9.00;99.90
20714;DHT22;10518;50.742;4.226;2023-02-01T10:47:59;9.00;99.90
20714;DHT22;10518;50.742;4.226;2023-02-01T10:53:08;9.10;99.90
20714;DHT22;10518;50.742;4.226;2023-02-01T10:58:14;9.20;99.90
20714;DHT22;10518;50.742;4.226;2023-02-01T11:05:53;9.40;99.90
20714;DHT22;10518;50.742;4.226;2023-02-01T11:08:20;9.50;99.90
20714;DHT22;10518;50.742;4.226;2023-02-01T11:10:46;9.60;99.90
20714;DHT22;10518;50.742;4.226;2023-02-01T11:13:14;9.70;99.90
20714;DHT22;10518;50.742;4.226;2023-02-01T11:15:54;9.80;99.90
20714;DHT22;10518;50.742;4.226;2023-02-01T11:18:27;9.80;99.90
20714;DHT22;10518;50.742;4.226;2023-02-01T11:20:53;9.90;99.90
20714;DHT22;10518;50.742;4.226;2023-02-01T11:23:23;9.70;99.90
20714;DHT22;10518;50.742;4.226;2023-02-01T11:26:09;9.80;99.90
20714;DHT22;10518;50.742;4.226;2023-02-01T11:28:38;9.80;99.90
20714;DHT22;10518;50.742;4.226;2023-02-01T11:31:09;10.00;99.90
20714;DHT22;10518;50.742;4.226;2023-02-01T11:33:38;10.10;99.90
20714;DHT22;10518;50.742;4.226;2023-02-01T11:36:12;10.20;99.90
20714;DHT22;10518;50.742;4.226;2023-02-01T11:38:39;10.20;99.90
20714;DHT22;10518;50.742;4.226;2023-02-01T11:41:25;10.20;99.90
20714;DHT22;10518;50.742;4.226;2023-02-01T11:43:56;10.30;99.90
20714;DHT22;10518;50.742;4.226;2023-02-01T11:46:26;10.50;99.90
20714;DHT22;10518;50.742;4.226;2023-02-01T11:48:54;10.50;99.90
20714;DHT22;10518;50.742;4.226;2023-02-01T11:54:23;10.50;99.90
20714;DHT22;10518;50.742;4.226;2023-02-01T12:14:05;10.10;99.90
20714;DHT22;10518;50.742;4.226;2023-02-01T12:22:29;10.20;99.90
20714;DHT22;10518;50.742;4.226;2023-02-01T12:27:46;10.30;99.90
20714;DHT22;10518;50.742;4.226;2023-02-01T12:36:46;10.50;99.90
20714;DHT22;10518;50.742;4.226;2023-02-01T12:39:45;10.50;99.90
20714;DHT22;10518;50.742;4.226;2023-02-01T12:47:19;10.70;99.90
20714;DHT22;10518;50.742;4.226;2023-02-01T12:49:55;10.80;99.90
20714;DHT22;10518;50.742;4.226;2023-02-01T12:55:32;11.00;99.90
20714;DHT22;10518;50.742;4.226;2023-02-01T13:00:41;11.00;99.90
20714;DHT22;10518;50.742;4.226;2023-02-01T13:05:59;11.00;99.90
20714;DHT22;10518;50.742;4.226;2023-02-01T13:11:17;11.00;99.90
20714;DHT22;10518;50.742;4.226;2023-02-01T13:14:07;10.90;99.90
20714;DHT22;10518;50.742;4.226;2023-02-01T13:16:38;10.90;99.90
20714;DHT22;10518;50.742;4.226;2023-02-01T13:21:55;10.90;99.90
20714;DHT22;10518;50.742;4.226;2023-02-01T13:27:03;10.90;99.90
20714;DHT22;10518;50.742;4.226;2023-02-01T13:29:30;11.00;99.90
20714;DHT22;10518;50.742;4.226;2023-02-01T13:40:43;10.60;99.90
20714;DHT22;10518;50.742;4.226;2023-02-01T13:45:49;10.60;99.90
20714;DHT22;10518;50.742;4.226;2023-02-01T13:48:49;10.70;99.90
20714;DHT22;10518;50.742;4.226;2023-02-01T13:51:33;10.70;99.90
20714;DHT22;10518;50.742;4.226;2023-02-01T13:53:59;10.80;99.90
20714;DHT22;10518;50.742;4.226;2023-02-01T13:56:25;10.80;99.90
20714;DHT22;10518;50.742;4.226;2023-02-01T13:58:51;10.90;99.90
20714;DHT22;10518;50.742;4.226;2023-02-01T14:04:45;10.80;99.90
20714;DHT22;10518;50.742;4.226;2023-02-01T14:06:42;10.90;99.90
20714;DHT22;10518;50.742;4.226;2023-02-01T14:11:53;11.20;99.90
20714;DHT22;10518;50.742;4.226;2023-02-01T14:21:57;11.50;99.90
20714;DHT22;10518;50.742;4.226;2023-02-01T14:24:29;11.60;99.90
20714;DHT22;10518;50.742;4.226;2023-02-01T14:27:01;11.80;99.90
20714;DHT22;10518;50.742;4.226;2023-02-01T14:29:36;12.00;99.90
20714;DHT22;10518;50.742;4.226;2023-02-01T14:32:20;12.10;99.90
20714;DHT22;10518;50.742;4.226;2023-02-01T14:37:36;11.90;99.90
20714;DHT22;10518;50.742;4.226;2023-02-01T14:42:44;11.90;99.90
20714;DHT22;10518;50.742;4.226;2023-02-01T14:47:51;12.00;99.90
20714;DHT22;10518;50.742;4.226;2023-02-01T15:01:04;11.60;99.90
20714;DHT22;10518;50.742;4.226;2023-02-01T15:05:59;11.50;99.90
20714;DHT22;10518;50.742;4.226;2023-02-01T15:08:33;11.40;99.90
20714;DHT22;10518;50.742;4.226;2023-02-01T15:11:05;11.20;99.90
20714;DHT22;10518;50.742;4.226;2023-02-01T15:13:32;11.10;99.90
20714;DHT22;10518;50.742;4.226;2023-02-01T15:18:26;11.00;99.90
20714;DHT22;10518;50.742;4.226;2023-02-01T15:21:02;11.10;99.90
20714;DHT22;10518;50.742;4.226;2023-02-01T15:23:29;11.00;99.90
20714;DHT22;10518;50.742;4.226;2023-02-01T15:25:54;11.10;99.90
20714;DHT22;10518;50.742;4.226;2023-02-01T15:28:21;10.90;99.90
20714;DHT22;10518;50.742;4.226;2023-02-01T15:33:24;10.90;99.90
20714;DHT22;10518;50.742;4.226;2023-02-01T15:38:41;11.00;99.90
20714;DHT22;10518;50.742;4.226;2023-02-01T15:41:14;11.00;99.90
20714;DHT22;10518;50.742;4.226;2023-02-01T15:44:26;11.00;99.90
20714;DHT22;10518;50.742;4.226;2023-02-01T15:46:53;11.00;99.90
20714;DHT22;10518;50.742;4.226;2023-02-01T15:51:49;10.90;99.90
20714;DHT22;10518;50.742;4.226;2023-02-01T15:54:19;11.10;99.90
20714;DHT22;10518;50.742;4.226;2023-02-01T15:56:53;11.00;99.90
20714;DHT22;10518;50.742;4.226;2023-02-01T15:59:22;10.90;99.90
20714;DHT22;10518;50.742;4.226;2023-02-01T16:01:49;10.90;99.90
20714;DHT22;10518;50.742;4.226;2023-02-01T16:04:23;10.80;99.90
20714;DHT22;10518;50.742;4.226;2023-02-01T16:06:54;10.70;99.90
20714;DHT22;10518;50.742;4.226;2023-02-01T16:09:22;10.80;99.90
20714;DHT22;10518;50.742;4.226;2023-02-01T16:11:56;11.00;99.90
20714;DHT22;10518;50.742;4.226;2023-02-01T16:14:23;10.80;99.90
20714;DHT22;10518;50.742;4.226;2023-02-01T16:16:50;10.70;99.90
20714;DHT22;10518;50.742;4.226;2023-02-01T16:19:15;10.70;99.90
20714;DHT22;10518;50.742;4.226;2023-02-01T16:21:41;10.60;99.90
20714;DHT22;10518;50.742;4.226;2023-02-01T16:24:07;10.70;99.90
20714;DHT22;10518;50.742;4.226;2023-02-01T16:26:33;10.70;99.90
20714;DHT22;10518;50.742;4.226;2023-02-01T16:29:00;10.60;99.90
20714;DHT22;10518;50.742;4.226;2023-02-01T16:31:36;10.60;99.90
20714;DHT22;10518;50.742;4.226;2023-02-01T16:34:03;10.70;99.90
20714;DHT22;10518;50.742;4.226;2023-02-01T16:36:28;10.60;99.90
20714;DHT22;10518;50.742;4.226;2023-02-01T16:38:54;10.60;99.90
20714;DHT22;10518;50.742;4.226;2023-02-01T16:41:22;10.50;99.90
20714;DHT22;10518;50.742;4.226;2023-02-01T16:43:53;10.50;99.90
20714;DHT22;10518;50.742;4.226;2023-02-01T16:46:22;10.50;99.90
20714;DHT22;10518;50.742;4.226;2023-02-01T16:48:53;10.70;99.90
20714;DHT22;10518;50.742;4.226;2023-02-01T16:51:19;10.70;99.90
20714;DHT22;10518;50.742;4.226;2023-02-01T16:53:45;10.60;99.90
20714;DHT22;10518;50.742;4.226;2023-02-01T16:56:22;10.60;99.90
20714;DHT22;10518;50.742;4.226;2023-02-01T16:58:49;10.60;99.90
20714;DHT22;10518;50.742;4.226;2023-02-01T17:01:17;10.70;99.90
20714;DHT22;10518;50.742;4.226;2023-02-01T17:03:44;10.60;99.90
20714;DHT22;10518;50.742;4.226;2023-02-01T17:06:13;10.50;99.90
20714;DHT22;10518;50.742;4.226;2023-02-01T17:08:41;10.50;99.90
20714;DHT22;10518;50.742;4.226;2023-02-01T17:11:09;10.40;99.90
20714;DHT22;10518;50.742;4.226;2023-02-01T17:13:35;10.60;99.90
20714;DHT22;10518;50.742;4.226;2023-02-01T17:18:38;10.60;99.90
20714;DHT22;10518;50.742;4.226;2023-02-01T17:21:04;10.60;99.90
20714;DHT22;10518;50.742;4.226;2023-02-01T17:23:31;10.60;99.90
20714;DHT22;10518;50.742;4.226;2023-02-01T17:25:57;10.60;99.90
20714;DHT22;10518;50.742;4.226;2023-02-01T17:28:23;10.50;99.90
20714;DHT22;10518;50.742;4.226;2023-02-01T17:30:49;10.50;99.90
20714;DHT22;10518;50.742;4.226;2023-02-01T17:33:23;10.40;99.90
20714;DHT22;10518;50.742;4.226;2023-02-01T17:35:49;10.30;99.90
20714;DHT22;10518;50.742;4.226;2023-02-01T17:38:15;10.20;99.90
20714;DHT22;10518;50.742;4.226;2023-02-01T17:40:40;10.20;99.90
20714;DHT22;10518;50.742;4.226;2023-02-01T17:43:11;10.20;99.90
20714;DHT22;10518;50.742;4.226;2023-02-01T17:45:44;10.40;99.90
20714;DHT22;10518;50.742;4.226;2023-02-01T17:48:14;10.30;99.90
20714;DHT22;10518;50.742;4.226;2023-02-01T17:50:40;10.30;99.90
20714;DHT22;10518;50.742;4.226;2023-02-01T17:53:06;10.30;99.90
20714;DHT22;10518;50.742;4.226;2023-02-01T17:55:35;10.40;99.90
20714;DHT22;10518;50.742;4.226;2023-02-01T17:58:01;10.30;99.90
20714;DHT22;10518;50.742;4.226;2023-02-01T18:00:27;10.10;99.90
20714;DHT22;10518;50.742;4.226;2023-02-01T18:03:00;10.10;99.90
20714;DHT22;10518;50.742;4.226;2023-02-01T18:05:38;10.10;99.90
20714;DHT22;10518;50.742;4.226;2023-02-01T18:08:06;10.10;99.90
20714;DHT22;10518;50.742;4.226;2023-02-01T18:10:32;10.20;99.90
20714;DHT22;10518;50.742;4.226;2023-02-01T18:12:58;10.20;99.90
20714;DHT22;10518;50.742;4.226;2023-02-01T18:15:24;10.10;99.90
20714;DHT22;10518;50.742;4.226;2023-02-01T18:17:50;10.10;99.90
20714;DHT22;10518;50.742;4.226;2023-02-01T18:20:18;10.20;99.90
20714;DHT22;10518;50.742;4.226;2023-02-01T18:22:45;10.20;99.90
20714;DHT22;10518;50.742;4.226;2023-02-01T18:25:27;10.20;99.90
20714;DHT22;10518;50.742;4.226;2023-02-01T18:27:55;10.00;99.90
20714;DHT22;10518;50.742;4.226;2023-02-01T18:30:28;10.00;99.90
20714;DHT22;10518;50.742;4.226;2023-02-01T18:32:55;10.00;99.90
20714;DHT22;10518;50.742;4.226;2023-02-01T18:35:27;10.00;99.90
20714;DHT22;10518;50.742;4.226;2023-02-01T18:37:53;10.10;99.90
20714;DHT22;10518;50.742;4.226;2023-02-01T18:40:26;9.90;99.90
20714;DHT22;10518;50.742;4.226;2023-02-01T18:42:53;10.10;99.90
20714;DHT22;10518;50.742;4.226;2023-02-01T18:45:29;10.10;99.90
20714;DHT22;10518;50.742;4.226;2023-02-01T18:47:56;10.10;99.90
20714;DHT22;10518;50.742;4.226;2023-02-01T18:50:22;10.10;99.90
20714;DHT22;10518;50.742;4.226;2023-02-01T18:52:52;10.10;99.90
20714;DHT22;10518;50.742;4.226;2023-02-01T18:55:17;10.20;99.90